Time;durP1;ratioP1;P1;durP2;ratioP2;P2;SDS_P1;SDS_P2;PMS_P1;PMS_P2;Temp;Humidity;BMP_temperature;BMP_pressure;BME280_temperature;BME280_humidity;BME280_pressure;Samples;Min_cycle;Max_cycle;Signal;HPM_P1;HPM_P2
2024/01/11 00:02:08;;;;;;;30.23;22.03;;;;;;;-8.92;100.00;102765.22;10492917;28;20494;-77
2024/01/11 00:07:09;;;;;;;30.83;19.00;;;;;;;-8.91;100.00;102759.47;10475638;28;20358;-77
2024/01/11 00:12:09;;;;;;;25.92;22.35;;;;;;;-8.96;100.00;102766.34;10464522;28;20033;-78
2024/01/11 00:17:10;;;;;;;29.63;16.70;;;;;;;-8.90;100.00;102774.91;10492386;28;20052;-77
2024/01/11 00:22:10;;;;;;;36.93;21.03;;;;;;;-8.73;100.00;102762.31;10471891;28;20580;-77
2024/01/11 00:27:11;;;;;;;33.13;20.37;;;;;;;-8.70;100.00;102764.38;10480455;28;20041;-76
2024/01/11 00:32:11;;;;;;;26.27;16.70;;;;;;;-8.73;100.00;102767.38;10492528;27;20044;-77
2024/01/11 00:37:12;;;;;;;27.53;21.47;;;;;;;-8.69;100.00;102767.88;10523148;27;20182;-77
2024/01/11 00:42:12;;;;;;;42.20;21.63;;;;;;;-8.51;100.00;102770.69;10507565;28;20043;-77
2024/01/11 00:47:13;;;;;;;29.73;19.20;;;;;;;-8.44;100.00;102762.34;10486052;28;20371;-78
2024/01/11 00:52:13;;;;;;;35.53;21.50;;;;;;;-8.49;100.00;102760.75;10483652;28;20037;-77
2024/01/11 00:57:14;;;;;;;33.27;21.90;;;;;;;-8.53;100.00;102763.53;10482802;28;20178;-77
2024/01/11 01:02:14;;;;;;;36.67;23.77;;;;;;;-8.61;100.00;102763.25;10477237;28;20132;-77
2024/01/11 01:07:15;;;;;;;33.83;21.93;;;;;;;-8.68;100.00;102762.09;10474338;28;20064;-78
2024/01/11 01:12:15;;;;;;;35.20;23.03;;;;;;;-8.68;100.00;102769.72;10512473;27;20139;-77
2024/01/11 01:17:16;;;;;;;32.73;21.50;;;;;;;-8.66;100.00;102761.63;10526260;27;20566;-77
2024/01/11 01:22:16;;;;;;;29.90;21.97;;;;;;;-8.67;100.00;102759.78;10478532;28;20123;-78
2024/01/11 01:27:17;;;;;;;25.60;19.60;;;;;;;-8.68;100.00;102754.47;10479360;28;20044;-78
2024/01/11 01:32:17;;;;;;;35.03;22.63;;;;;;;-8.64;100.00;102754.25;10474601;28;20101;-78
2024/01/11 01:37:18;;;;;;;39.40;22.70;;;;;;;-8.64;100.00;102761.88;10476616;28;20383;-78
2024/01/11 01:42:20;;;;;;;46.60;20.07;;;;;;;-8.76;100.00;102769.44;10487582;28;20047;-77
2024/01/11 01:47:21;;;;;;;36.40;22.65;;;;;;;-8.83;100.00;102776.81;10522523;28;20036;-78
2024/01/11 01:52:21;;;;;;;26.60;17.13;;;;;;;-8.92;100.00;102778.81;10511288;27;20025;-78
2024/01/11 01:57:22;;;;;;;27.10;22.47;;;;;;;-9.06;100.00;102779.22;10521078;27;20052;-77
2024/01/11 02:02:22;;;;;;;32.27;22.83;;;;;;;-9.10;100.00;102788.63;10523149;28;20486;-77
2024/01/11 02:07:24;;;;;;;30.70;19.97;;;;;;;-9.03;100.00;102797.47;10520319;27;20044;-78
2024/01/11 02:12:25;;;;;;;51.40;24.17;;;;;;;-8.98;100.00;102803.25;10494484;28;20107;-77
2024/01/11 02:17:26;;;;;;;38.75;22.42;;;;;;;-9.06;100.00;102801.13;10480495;28;20036;-77
2024/01/11 02:22:35;;;;;;;31.27;21.17;;;;;;;-9.23;100.00;102791.78;10451972;28;20503;-77
2024/01/11 02:27:48;;;;;;;40.93;23.00;;;;;;;-9.17;100.00;102785.13;10465404;28;20047;-77
2024/01/11 02:32:49;;;;;;;33.40;24.00;;;;;;;-9.21;100.00;102776.81;10434625;28;20504;-77
2024/01/11 02:37:49;;;;;;;37.25;24.83;;;;;;;-9.23;100.00;102786.72;10480838;28;20052;-77
2024/01/11 02:42:50;;;;;;;35.50;22.73;;;;;;;-9.30;100.00;102779.75;10457466;28;20151;-77
2024/01/11 02:47:50;;;;;;;38.43;23.17;;;;;;;-9.37;100.00;102783.63;10482203;28;20309;-76
2024/01/11 02:52:51;;;;;;;33.43;21.00;;;;;;;-9.37;100.00;102786.16;10512535;28;20445;-77
2024/01/11 02:57:51;;;;;;;33.30;24.73;;;;;;;-9.43;100.00;102781.06;10474883;28;20088;-77
2024/01/11 03:02:52;;;;;;;37.83;25.53;;;;;;;-9.15;100.00;102772.72;10478321;28;20132;-78
2024/01/11 03:07:52;;;;;;;35.93;24.97;;;;;;;-9.05;100.00;102776.00;10491893;28;20071;-77
2024/01/11 03:12:53;;;;;;;49.10;27.77;;;;;;;-9.24;100.00;102776.34;10515022;27;20040;-77
2024/01/11 03:17:53;;;;;;;39.83;25.60;;;;;;;-9.24;100.00;102761.13;10518148;28;20221;-77
2024/01/11 03:22:54;;;;;;;34.93;25.43;;;;;;;-9.21;100.00;102757.44;10517080;27;20127;-77
2024/01/11 03:27:54;;;;;;;29.03;24.10;;;;;;;-9.30;100.00;102773.75;10526766;28;20490;-77
2024/01/11 03:32:55;;;;;;;36.53;23.97;;;;;;;-9.39;100.00;102752.97;10523068;27;20040;-77
2024/01/11 03:37:55;;;;;;;30.45;23.95;;;;;;;-9.39;100.00;102763.09;10505742;27;20503;-77
2024/01/11 03:42:56;;;;;;;37.37;22.60;;;;;;;-9.46;100.00;102761.19;10504458;28;20063;-77
2024/01/11 03:47:56;;;;;;;39.95;24.45;;;;;;;-9.51;100.00;102771.31;10475248;28;20124;-77
2024/01/11 03:52:57;;;;;;;33.77;23.37;;;;;;;-9.51;100.00;102772.22;10479586;27;20470;-77
2024/01/11 03:57:57;;;;;;;35.17;25.42;;;;;;;-9.55;100.00;102764.81;10478444;28;20610;-78
2024/01/11 04:02:58;;;;;;;43.73;26.77;;;;;;;-9.57;100.00;102768.72;10456203;28;20123;-77
2024/01/11 04:07:58;;;;;;;37.22;26.83;;;;;;;-9.57;100.00;102780.47;10485524;28;20063;-77
2024/01/11 04:12:59;;;;;;;49.03;26.20;;;;;;;-9.69;100.00;102777.84;10456323;28;20047;-77
2024/01/11 04:18:00;;;;;;;37.97;23.83;;;;;;;-9.78;100.00;102772.25;10459123;28;20306;-77
2024/01/11 04:23:00;;;;;;;29.47;23.17;;;;;;;-9.73;100.00;102778.97;10477128;28;20190;-77
2024/01/11 04:28:01;;;;;;;30.17;22.20;;;;;;;-9.78;100.00;102782.38;10472110;28;20049;-77
2024/01/11 04:33:01;;;;;;;41.60;26.03;;;;;;;-9.72;100.00;102795.13;10476086;28;20802;-75
2024/01/11 04:38:02;;;;;;;50.15;24.33;;;;;;;-9.78;100.00;102795.03;10478075;28;20041;-76
2024/01/11 04:43:03;;;;;;;46.28;24.70;;;;;;;-9.72;100.00;102800.19;10485948;28;20039;-77
2024/01/11 04:48:04;;;;;;;53.53;28.83;;;;;;;-9.73;100.00;102803.41;10463733;28;20063;-75
2024/01/11 04:53:04;;;;;;;42.95;25.95;;;;;;;-9.67;100.00;102809.44;10471076;28;20080;-77
2024/01/11 04:58:05;;;;;;;38.73;28.67;;;;;;;-9.68;100.00;102816.78;10479170;28;20135;-78
2024/01/11 05:03:05;;;;;;;46.57;29.03;;;;;;;-9.61;100.00;102815.50;10467893;28;20047;-76
2024/01/11 05:08:06;;;;;;;37.47;27.67;;;;;;;-9.68;100.00;102802.53;10454630;28;20741;-77
2024/01/11 05:13:06;;;;;;;31.93;22.60;;;;;;;-9.74;100.00;102817.66;10475052;28;20078;-76
2024/01/11 05:18:07;;;;;;;42.47;27.37;;;;;;;-9.71;100.00;102826.44;10480429;28;21167;-77
2024/01/11 05:23:08;;;;;;;37.63;26.75;;;;;;;-9.62;100.00;102825.38;10474170;28;20033;-75
2024/01/11 05:28:08;;;;;;;54.13;26.73;;;;;;;-9.67;100.00;102819.59;10498662;28;20037;-75
2024/01/11 05:33:09;;;;;;;35.37;23.10;;;;;;;-9.72;100.00;102828.06;10476144;28;20041;-76
2024/01/11 05:38:09;;;;;;;44.20;29.60;;;;;;;-9.86;100.00;102825.84;10475199;28;20115;-76
2024/01/11 05:43:10;;;;;;;33.40;26.73;;;;;;;-10.08;100.00;102839.22;10474763;28;20120;-74
2024/01/11 05:48:10;;;;;;;46.10;28.07;;;;;;;-10.20;100.00;102855.88;10487430;28;20271;-75
2024/01/11 05:53:12;;;;;;;41.17;26.85;;;;;;;-10.27;100.00;102863.16;10454840;28;20275;-76
2024/01/11 05:58:12;;;;;;;;;;;;;;;-10.23;100.00;102862.97;10472108;28;20540;-76
2024/01/11 06:03:13;;;;;;;41.40;28.17;;;;;;;-10.22;100.00;102849.63;10497250;28;19979;-75
2024/01/11 06:08:13;;;;;;;37.55;25.15;;;;;;;-10.29;100.00;102867.06;10514444;28;20425;-75
2024/01/11 06:13:14;;;;;;;40.15;24.85;;;;;;;-10.29;100.00;102877.19;10518319;27;20081;-75
2024/01/11 06:18:15;;;;;;;48.33;28.50;;;;;;;-10.39;100.00;102882.41;10526161;28;20036;-75
2024/01/11 06:23:16;;;;;;;32.95;25.25;;;;;;;-10.48;100.00;102889.41;10527195;28;20085;-75
2024/01/11 06:28:17;;;;;;;41.87;27.07;;;;;;;-10.56;100.00;102889.75;10518093;27;20488;-75
2024/01/11 06:33:17;;;;;;;41.03;27.70;;;;;;;-10.47;100.00;102886.19;10466903;27;20128;-75
2024/01/11 06:38:18;;;;;;;41.70;26.13;;;;;;;-10.38;100.00;102886.75;10434024;28;20044;-75
2024/01/11 06:43:18;;;;;;;43.10;24.80;;;;;;;-10.52;100.00;102902.25;10416450;28;20037;-76
2024/01/11 06:48:19;;;;;;;36.03;29.00;;;;;;;-10.48;100.00;102890.34;10431876;28;20048;-75
2024/01/11 06:53:19;;;;;;;35.25;25.20;;;;;;;-10.53;100.00;102876.00;10441312;28;20090;-75
2024/01/11 06:58:23;;;;;;;41.90;26.77;;;;;;;-10.65;100.00;102876.53;10433868;28;20047;-75
2024/01/11 07:03:25;;;;;;;30.83;24.00;;;;;;;-10.67;100.00;102883.88;10445841;28;20040;-75
2024/01/11 07:08:26;;;;;;;46.93;28.23;;;;;;;-10.70;100.00;102874.84;10481863;28;20048;-75
2024/01/11 07:13:26;;;;;;;47.83;27.80;;;;;;;-10.80;100.00;102892.63;10455705;28;20037;-76
2024/01/11 07:18:27;;;;;;;41.25;28.80;;;;;;;-10.71;100.00;102885.66;10496974;27;20064;-75
2024/01/11 07:23:27;;;;;;;40.33;27.08;;;;;;;-10.75;100.00;102875.69;10472400;28;20079;-76
2024/01/11 07:28:28;;;;;;;40.00;25.88;;;;;;;-10.75;100.00;102901.00;10470816;28;20048;-74
2024/01/11 07:33:29;;;;;;;38.30;24.60;;;;;;;-10.47;100.00;102919.09;10479572;28;20074;-74
2024/01/11 07:38:29;;;;;;;44.60;29.13;;;;;;;-10.47;100.00;102903.91;10501032;27;20901;-74
2024/01/11 07:43:31;;;;;;;45.17;28.10;;;;;;;-10.58;100.00;102912.31;10503563;27;20395;-73
2024/01/11 07:48:31;;;;;;;46.13;33.17;;;;;;;-10.59;100.00;102919.63;10490398;28;20052;-75
2024/01/11 07:53:32;;;;;;;48.85;27.23;;;;;;;-10.28;100.00;102920.50;10478986;28;20049;-76
2024/01/11 07:58:32;;;;;;;29.25;24.08;;;;;;;-10.22;100.00;102918.03;10493317;27;20147;-75
2024/01/11 08:03:34;;;;;;;42.53;26.95;;;;;;;-10.01;100.00;102923.13;10514217;27;20174;-75
2024/01/11 08:08:35;;;;;;;42.53;26.90;;;;;;;-9.88;100.00;102924.44;10507406;28;20093;-75
2024/01/11 08:13:37;;;;;;;45.53;24.67;;;;;;;-9.77;100.00;102927.78;10498138;27;20135;-76
2024/01/11 08:18:38;;;;;;;52.13;27.43;;;;;;;-9.73;100.00;102910.75;10491492;27;20041;-76
2024/01/11 08:23:44;;;;;;;32.33;26.75;;;;;;;-9.78;100.00;102906.56;10525212;27;20136;-75
2024/01/11 08:28:45;;;;;;;40.83;26.53;;;;;;;-9.83;100.00;102896.38;10490465;27;20040;-75
2024/01/11 08:33:46;;;;;;;34.53;26.92;;;;;;;-9.83;100.00;102896.38;10525871;27;20524;-75
2024/01/11 08:38:46;;;;;;;39.03;27.47;;;;;;;-9.82;100.00;102891.53;10520622;27;20124;-75
2024/01/11 08:43:47;;;;;;;44.17;26.67;;;;;;;-9.77;100.00;102889.75;10511254;27;20124;-76
2024/01/11 08:48:47;;;;;;;41.92;26.52;;;;;;;-9.69;100.00;102894.47;10503981;27;20032;-76
2024/01/11 08:53:48;;;;;;;43.97;29.27;;;;;;;-9.32;100.00;102894.31;10526338;27;20067;-75
2024/01/11 08:58:48;;;;;;;36.90;26.77;;;;;;;-9.24;100.00;102880.34;10499639;28;20765;-74
2024/01/11 09:03:49;;;;;;;38.23;23.47;;;;;;;-9.14;100.00;102881.13;10455948;28;20127;-75
2024/01/11 09:08:49;;;;;;;47.47;26.87;;;;;;;-8.91;100.00;102887.28;10479076;28;20269;-75
2024/01/11 09:13:51;;;;;;;45.03;28.67;;;;;;;-8.50;100.00;102904.63;10472391;28;20124;-75
2024/01/11 09:18:52;;;;;;;52.40;30.23;;;;;;;-7.99;100.00;102901.34;10483908;28;20040;-75
2024/01/11 09:23:52;;;;;;;47.58;28.15;;;;;;;-7.52;100.00;102894.03;10470731;28;20039;-75
2024/01/11 09:28:53;;;;;;;42.27;29.60;;;;;;;-7.20;100.00;102900.53;10516908;27;20405;-75
2024/01/11 09:33:53;;;;;;;46.00;33.80;;;;;;;-6.91;100.00;102900.53;10523551;27;20035;-75
2024/01/11 09:38:57;;;;;;;42.10;28.13;;;;;;;-6.53;100.00;102906.25;10500604;27;20376;-75
2024/01/11 09:43:59;;;;;;;43.90;30.77;;;;;;;-6.15;100.00;102920.28;10525617;27;20050;-75
2024/01/11 09:49:00;;;;;;;54.30;31.42;;;;;;;-5.92;100.00;102927.81;10501135;28;20040;-75
2024/01/11 09:54:01;;;;;;;42.10;24.50;;;;;;;-5.73;100.00;102926.28;10523629;27;20048;-74
2024/01/11 09:59:01;;;;;;;46.43;28.23;;;;;;;-5.59;100.00;102938.53;10523655;28;20059;-75
2024/01/11 10:04:03;;;;;;;37.40;24.13;;;;;;;-5.43;100.00;102945.84;10499203;28;20119;-74
2024/01/11 10:09:03;;;;;;;41.88;27.05;;;;;;;-5.28;100.00;102957.34;10523533;27;20040;-75
2024/01/11 10:14:05;;;;;;;33.00;25.63;;;;;;;-5.07;100.00;102967.19;10497840;27;20414;-77
2024/01/11 10:19:05;;;;;;;35.05;28.27;;;;;;;-4.87;100.00;102970.97;10523054;27;20045;-78
2024/01/11 10:24:06;;;;;;;42.03;26.67;;;;;;;-4.47;100.00;102975.72;10525554;28;20048;-75
2024/01/11 10:29:10;;;;;;;49.77;28.60;;;;;;;-4.00;100.00;102972.91;10522229;28;20036;-76
2024/01/11 10:34:11;;;;;;;47.28;27.88;;;;;;;-3.66;100.00;102986.00;10506095;27;20040;-75
2024/01/11 10:39:11;;;;;;;37.47;26.47;;;;;;;-3.10;100.00;103003.13;10512277;27;20115;-76
2024/01/11 10:44:22;;;;;;;49.73;26.70;;;;;;;-1.90;100.00;103023.22;10523200;27;20542;-75
2024/01/11 10:49:23;;;;;;;37.65;22.55;;;;;;;-0.42;100.00;103043.03;10515232;27;20032;-76
2024/01/11 10:54:24;;;;;;;31.95;23.02;;;;;;;-0.67;100.00;103075.91;10509538;27;20055;-76
2024/01/11 10:59:25;;;;;;;33.30;22.63;;;;;;;0.20;100.00;103095.41;10506415;27;20135;-76
2024/01/11 11:04:26;;;;;;;42.05;23.23;;;;;;;2.35;100.00;103115.16;10507325;28;20040;-76
2024/01/11 11:09:27;;;;;;;43.90;22.53;;;;;;;2.56;100.00;103164.94;10502822;28;20067;-76
2024/01/11 11:14:28;;;;;;;33.83;19.73;;;;;;;0.92;100.00;103161.81;10491244;28;20033;-77
2024/01/11 11:19:28;;;;;;;29.77;20.47;;;;;;;-0.85;100.00;103159.28;10521185;27;20519;-77
2024/01/11 11:24:29;;;;;;;35.17;20.97;;;;;;;-1.60;100.00;103130.72;10507463;27;20043;-76
2024/01/11 11:29:30;;;;;;;34.08;24.00;;;;;;;-0.73;100.00;103108.56;10515183;28;20063;-77
2024/01/11 11:34:44;;;;;;;36.30;22.97;;;;;;;0.31;100.00;103126.75;10511189;28;20060;-77
2024/01/11 11:39:44;;;;;;;32.28;21.92;;;;;;;0.01;100.00;103135.97;10463224;28;20071;-78
2024/01/11 11:44:49;;;;;;;38.10;22.47;;;;;;;-0.08;100.00;103152.84;10456871;28;20070;-78
2024/01/11 11:50:04;;;;;;;33.63;21.17;;;;;;;-0.25;100.00;103154.19;10466682;28;20120;-77
2024/01/11 11:55:06;;;;;;;34.47;21.00;;;;;;;-0.71;100.00;103149.16;10479855;28;20111;-77
2024/01/11 12:00:07;;;;;;;35.35;24.48;;;;;;;-1.21;100.00;103154.69;10510744;27;20036;-77
2024/01/11 12:05:08;;;;;;;36.77;24.57;;;;;;;-0.93;100.00;103148.94;10481480;28;20045;-78
2024/01/11 12:10:08;;;;;;;28.63;18.30;;;;;;;-1.61;100.00;103145.16;10463150;28;20119;-78
2024/01/11 12:15:11;;;;;;;32.77;21.57;;;;;;;-1.16;100.00;103129.56;10474981;28;20037;-77
2024/01/11 12:20:12;;;;;;;34.92;21.00;;;;;;;-0.49;100.00;103119.44;10451088;28;20484;-77
2024/01/11 12:25:12;;;;;;;39.27;21.17;;;;;;;0.91;100.00;103122.94;10475967;28;20383;-78
2024/01/11 12:30:16;;;;;;;33.03;18.10;;;;;;;0.35;100.00;103140.22;10471118;28;20072;-77
2024/01/11 12:35:17;;;;;;;32.00;20.52;;;;;;;-0.15;100.00;103109.91;10466843;28;20033;-78
2024/01/11 12:40:17;;;;;;;33.30;21.17;;;;;;;0.63;100.00;103112.75;10454059;28;20044;-78
2024/01/11 12:45:18;;;;;;;28.87;18.27;;;;;;;0.20;100.00;103110.88;10467432;28;20046;-78
2024/01/11 12:50:20;;;;;;;29.80;21.77;;;;;;;0.27;100.00;103105.75;10461822;28;20043;-77
2024/01/11 12:55:20;;;;;;;32.92;20.55;;;;;;;0.30;100.00;103125.84;10478731;28;20048;-78
2024/01/11 13:00:21;;;;;;;31.70;17.57;;;;;;;0.15;100.00;103117.09;10458145;28;20060;-78
2024/01/11 13:05:22;;;;;;;30.30;18.80;;;;;;;0.74;100.00;103124.38;10462894;28;20051;-77
2024/01/11 13:10:27;;;;;;;22.63;14.87;;;;;;;1.23;100.00;103124.31;10467634;28;20089;-77
2024/01/11 13:15:31;;;;;;;28.75;17.92;;;;;;;0.80;100.00;103124.22;10465092;28;20045;-78
2024/01/11 13:20:32;;;;;;;29.83;16.98;;;;;;;-0.12;100.00;103119.69;10496181;28;20077;-78
2024/01/11 13:25:32;;;;;;;30.23;16.83;;;;;;;-0.56;100.00;103118.41;10511026;27;20079;-78
2024/01/11 13:30:33;;;;;;;30.07;19.10;;;;;;;-0.84;100.00;103126.09;10517589;27;20067;-78
2024/01/11 13:35:43;;;;;;;32.40;18.60;;;;;;;-1.19;100.00;103131.03;10513044;27;20043;-78
2024/01/11 13:40:43;;;;;;;26.83;16.75;;;;;;;-1.10;100.00;103130.38;10497639;28;20036;-79
2024/01/11 13:45:44;;;;;;;28.33;17.10;;;;;;;-1.01;100.00;103135.81;10526075;27;20082;-79
2024/01/11 13:50:45;;;;;;;18.67;13.10;;;;;;;-0.97;100.00;103131.25;10524092;28;20056;-78
2024/01/11 13:55:45;;;;;;;29.93;20.63;;;;;;;-0.16;100.00;103139.91;10526167;28;20386;-79
2024/01/11 14:00:45;;;;;;;31.33;19.73;;;;;;;-0.21;100.00;103140.03;10522916;28;20042;-79
2024/01/11 14:05:47;;;;;;;33.30;18.60;;;;;;;-0.17;100.00;103142.28;10525723;28;20100;-78
2024/01/11 14:10:47;;;;;;;36.00;20.55;;;;;;;-0.28;100.00;103158.94;10524469;28;20039;-78
2024/01/11 14:15:49;;;;;;;31.40;20.63;;;;;;;-0.45;100.00;103156.75;10524850;28;20044;-81
2024/01/11 14:20:50;;;;;;;28.73;18.85;;;;;;;-0.73;100.00;103160.88;10523489;28;20173;-81
2024/01/11 14:25:50;;;;;;;35.03;22.47;;;;;;;-1.23;100.00;103151.91;10524505;28;21647;-79
2024/01/11 14:30:51;;;;;;;34.07;19.80;;;;;;;-1.43;100.00;103143.19;10522130;28;20121;-78
2024/01/11 14:35:51;;;;;;;31.60;21.00;;;;;;;-1.68;100.00;103128.03;10523091;28;20462;-78
2024/01/11 14:40:52;;;;;;;36.27;19.87;;;;;;;-1.96;100.00;103132.06;10521645;28;20127;-78
2024/01/11 14:45:53;;;;;;;31.50;16.10;;;;;;;-2.10;100.00;103119.91;10525261;28;20115;-78
2024/01/11 14:50:54;;;;;;;25.92;19.33;;;;;;;-2.28;100.00;103102.97;10468424;28;20112;-78
2024/01/11 14:55:55;;;;;;;28.40;20.23;;;;;;;-2.45;100.00;103110.94;10456915;28;20079;-79
2024/01/11 15:00:55;;;;;;;24.47;17.27;;;;;;;-2.60;100.00;103099.53;10454048;28;20185;-80
2024/01/11 15:05:56;;;;;;;18.40;13.40;;;;;;;-2.76;100.00;103091.38;10475264;28;20426;-80
2024/01/11 15:10:56;;;;;;;20.43;12.33;;;;;;;-2.91;100.00;103096.94;10438522;28;20128;-79
2024/01/11 15:15:57;;;;;;;17.83;10.90;;;;;;;-3.07;100.00;103089.72;10463531;28;20063;-79
2024/01/11 15:20:58;;;;;;;18.77;13.67;;;;;;;-3.28;100.00;103070.66;10478791;28;20522;-80
2024/01/11 15:25:58;;;;;;;23.67;12.30;;;;;;;-3.50;100.00;103063.25;10499703;27;20131;-79
2024/01/11 15:30:59;;;;;;;20.83;11.50;;;;;;;-3.63;100.00;103061.56;10512520;27;20123;-80
2024/01/11 15:35:59;;;;;;;18.57;11.90;;;;;;;-3.78;100.00;103061.97;10518556;28;20119;-80
2024/01/11 15:41:00;;;;;;;24.53;13.90;;;;;;;-3.90;100.00;103054.41;10506808;27;20143;-79
2024/01/11 15:46:00;;;;;;;19.13;14.27;;;;;;;-3.90;100.00;103033.94;10518715;27;20402;-78
2024/01/11 15:51:01;;;;;;;20.23;13.40;;;;;;;-3.59;100.00;103025.44;10504777;28;20097;-78
2024/01/11 15:56:01;;;;;;;33.97;15.97;;;;;;;-3.47;100.00;103017.59;10530054;28;20048;-78
2024/01/11 16:01:03;;;;;;;31.43;16.33;;;;;;;-3.30;100.00;103017.38;10512920;28;20546;-78
2024/01/11 16:06:04;;;;;;;19.98;14.48;;;;;;;-3.12;100.00;103013.84;10527504;28;20560;-78
2024/01/11 16:11:04;;;;;;;17.53;10.50;;;;;;;-2.96;100.00;103016.88;10509722;27;20170;-78
2024/01/11 16:16:05;;;;;;;19.67;14.67;;;;;;;-2.84;100.00;103017.63;10528999;28;20060;-79
2024/01/11 16:21:06;;;;;;;17.63;13.70;;;;;;;-2.90;100.00;103011.66;10526933;27;20123;-79
2024/01/11 16:26:09;;;;;;;27.33;12.95;;;;;;;-2.91;100.00;103004.69;10527930;28;20051;-78
2024/01/11 16:31:09;;;;;;;21.23;14.40;;;;;;;-2.93;100.00;102993.31;10530099;28;20040;-79
2024/01/11 16:36:10;;;;;;;22.73;15.30;;;;;;;-2.87;100.00;102981.31;10526205;28;20039;-78
2024/01/11 16:41:11;;;;;;;22.60;13.70;;;;;;;-2.86;100.00;102985.75;10526866;27;20515;-78
2024/01/11 16:46:20;;;;;;;14.47;11.93;;;;;;;-2.91;100.00;102982.56;10528486;28;20938;-78
2024/01/11 16:51:21;;;;;;;20.23;10.45;;;;;;;-2.84;100.00;102984.31;10503436;27;20086;-78
2024/01/11 16:56:21;;;;;;;21.67;13.77;;;;;;;-2.85;100.00;102978.28;10507324;28;20166;-78
2024/01/11 17:01:22;;;;;;;23.40;13.57;;;;;;;-2.81;100.00;102970.28;10504505;27;20448;-80
2024/01/11 17:06:22;;;;;;;13.43;9.93;;;;;;;-2.73;100.00;102975.53;10523725;27;20162;-78
2024/01/11 17:11:23;;;;;;;18.57;9.17;;;;;;;-2.71;100.00;102975.00;10525689;27;20072;-78
2024/01/11 17:16:23;;;;;;;21.37;12.07;;;;;;;-2.73;100.00;102961.03;10501847;27;20469;-77
2024/01/11 17:21:25;;;;;;;18.63;12.33;;;;;;;-2.71;100.00;102966.41;10522662;27;20131;-79
2024/01/11 17:26:28;;;;;;;16.30;10.65;;;;;;;-2.75;100.00;102970.16;10458841;28;20412;-78
2024/01/11 17:31:29;;;;;;;22.55;13.27;;;;;;;-2.77;100.00;102953.66;10493070;28;20150;-79
2024/01/11 17:36:31;;;;;;;16.37;10.73;;;;;;;-2.75;100.00;102962.47;10517590;27;20440;-80
2024/01/11 17:41:34;;;;;;;22.95;12.82;;;;;;;-2.73;100.00;102971.28;10507766;27;20042;-79
2024/01/11 17:46:34;;;;;;;21.15;13.35;;;;;;;-2.76;100.00;102969.97;10526731;27;20122;-79
2024/01/11 17:51:35;;;;;;;24.17;14.43;;;;;;;-2.79;100.00;102973.03;10505380;27;20028;-79
2024/01/11 17:56:43;;;;;;;19.88;12.93;;;;;;;-2.79;100.00;102967.91;10509753;27;20039;-79
2024/01/11 18:01:44;;;;;;;21.92;14.50;;;;;;;-2.79;100.00;102965.34;10504640;27;20036;-79
2024/01/11 18:06:45;;;;;;;25.93;14.70;;;;;;;-2.79;100.00;102961.88;10513693;27;20070;-79
2024/01/11 18:11:48;;;;;;;16.13;13.60;;;;;;;-2.78;100.00;102954.38;10505055;27;20040;-79
2024/01/11 18:16:48;;;;;;;21.05;14.55;;;;;;;-2.77;100.00;102956.22;10506175;28;20040;-79
2024/01/11 18:21:49;;;;;;;43.07;19.47;;;;;;;-2.76;100.00;102955.50;10525012;28;20115;-79
2024/01/11 18:26:49;;;;;;;22.67;17.97;;;;;;;-2.70;100.00;102966.59;10521010;28;20589;-79
2024/01/11 18:31:50;;;;;;;31.20;15.87;;;;;;;-2.73;100.00;102950.78;10523474;27;20123;-79
2024/01/11 18:36:50;;;;;;;28.97;16.73;;;;;;;-2.76;100.00;102945.25;10522089;28;20472;-80
2024/01/11 18:41:51;;;;;;;30.97;20.67;;;;;;;-2.77;100.00;102938.28;10504182;28;20032;-79
2024/01/11 18:46:53;;;;;;;23.05;16.52;;;;;;;-2.74;100.00;102946.38;10523686;28;20128;-80
2024/01/11 18:51:53;;;;;;;26.00;19.93;;;;;;;-2.76;100.00;102957.16;10497343;27;20036;-79
2024/01/11 18:56:54;;;;;;;29.27;18.90;;;;;;;-2.78;100.00;102949.25;10500010;28;20118;-79
2024/01/11 19:01:54;;;;;;;30.27;16.93;;;;;;;-2.78;100.00;102951.81;10504803;27;20072;-78
2024/01/11 19:06:55;;;;;;;23.70;17.67;;;;;;;-2.77;100.00;102951.09;10505354;27;20128;-79
2024/01/11 19:11:58;;;;;;;23.15;15.88;;;;;;;-2.72;100.00;102938.91;10496421;27;20072;-81
2024/01/11 19:16:59;;;;;;;32.30;22.60;;;;;;;-2.72;100.00;102951.72;10470909;28;20090;-77
2024/01/11 19:21:59;;;;;;;36.17;22.00;;;;;;;-2.72;100.00;102937.25;10467274;28;20509;-77
2024/01/11 19:27:00;;;;;;;33.63;23.37;;;;;;;-2.71;100.00;102939.09;10478982;28;20120;-77
2024/01/11 19:32:01;;;;;;;26.10;22.03;;;;;;;-2.67;100.00;102941.34;10480428;28;20048;-76
2024/01/11 19:37:01;;;;;;;36.17;24.27;;;;;;;-2.66;100.00;102935.50;10469792;28;20060;-77
2024/01/11 19:42:02;;;;;;;39.77;25.40;;;;;;;-2.64;100.00;102940.88;10484558;28;20037;-76
2024/01/11 19:47:03;;;;;;;36.50;24.37;;;;;;;-2.62;100.00;102933.34;10486072;28;20051;-76
2024/01/11 19:52:04;;;;;;;38.03;24.30;;;;;;;-2.63;100.00;102935.03;10483039;28;20437;-76
2024/01/11 19:57:04;;;;;;;34.93;22.63;;;;;;;-2.61;100.00;102936.16;10496645;28;20037;-76
2024/01/11 20:02:05;;;;;;;33.10;24.03;;;;;;;-2.53;100.00;102937.16;10488469;28;20060;-77
2024/01/11 20:07:05;;;;;;;35.77;25.37;;;;;;;-2.52;100.00;102934.81;10487326;28;20120;-77
2024/01/11 20:12:07;;;;;;;38.03;25.40;;;;;;;-2.53;100.00;102939.72;10481152;28;20040;-77
2024/01/11 20:17:11;;;;;;;43.85;24.80;;;;;;;-2.54;100.00;102943.00;10507908;28;20111;-76
2024/01/11 20:22:11;;;;;;;42.53;24.33;;;;;;;-2.54;100.00;102933.69;10489358;28;20044;-77
2024/01/11 20:27:12;;;;;;;33.30;23.63;;;;;;;-2.55;100.00;102931.84;10463517;28;20120;-76
2024/01/11 20:32:12;;;;;;;36.87;26.03;;;;;;;-2.51;100.00;102926.41;10447631;28;20045;-77
2024/01/11 20:37:13;;;;;;;30.00;22.07;;;;;;;-2.52;100.00;102936.44;10461411;28;20127;-77
2024/01/11 20:42:13;;;;;;;31.60;21.83;;;;;;;-2.50;100.00;102937.56;10505407;28;20864;-77
2024/01/11 20:47:14;;;;;;;38.20;23.23;;;;;;;-2.51;100.00;102922.91;10471114;28;20131;-77
2024/01/11 20:52:15;;;;;;;34.47;23.97;;;;;;;-2.49;100.00;102925.69;10463532;28;20075;-77
2024/01/11 20:57:15;;;;;;;33.63;23.33;;;;;;;-2.44;100.00;102937.47;10442024;28;20112;-77
2024/01/11 21:02:16;;;;;;;36.10;23.57;;;;;;;-2.38;100.00;102922.91;10480491;28;20072;-77
2024/01/11 21:07:17;;;;;;;42.20;25.57;;;;;;;-2.43;100.00;102936.75;10482776;28;20057;-78
2024/01/11 21:12:17;;;;;;;32.50;21.23;;;;;;;-2.44;100.00;102923.00;10506831;28;20047;-79
2024/01/11 21:17:18;;;;;;;35.97;22.87;;;;;;;-2.43;100.00;102940.22;10488355;28;20639;-77
2024/01/11 21:22:18;;;;;;;39.03;25.73;;;;;;;-2.44;100.00;102942.59;10482620;28;20039;-77
2024/01/11 21:27:19;;;;;;;43.53;25.23;;;;;;;-2.45;100.00;102933.06;10444136;28;20118;-77
2024/01/11 21:32:20;;;;;;;46.00;27.87;;;;;;;-2.40;100.00;102932.03;10447583;28;20059;-77
2024/01/11 21:37:20;;;;;;;39.00;22.87;;;;;;;-2.39;100.00;102932.22;10457294;28;20031;-77
2024/01/11 21:42:21;;;;;;;45.33;28.97;;;;;;;-2.39;100.00;102919.41;10486383;28;20063;-77
2024/01/11 21:47:21;;;;;;;32.13;24.37;;;;;;;-2.36;100.00;102917.25;10518707;27;20055;-77
2024/01/11 21:52:23;;;;;;;41.60;25.37;;;;;;;-2.34;100.00;102911.38;10483137;28;20043;-77
2024/01/11 21:57:23;;;;;;;39.97;27.15;;;;;;;-2.35;100.00;102910.47;10468665;28;20055;-78
2024/01/11 22:02:24;;;;;;;40.47;26.37;;;;;;;-2.37;100.00;102914.47;10483401;28;20483;-78
2024/01/11 22:07:24;;;;;;;49.37;25.80;;;;;;;-2.39;100.00;102909.13;10484157;28;20075;-77
2024/01/11 22:12:25;;;;;;;42.93;27.83;;;;;;;-2.38;100.00;102899.81;10525275;28;20042;-78
2024/01/11 22:17:25;;;;;;;37.07;26.23;;;;;;;-2.34;100.00;102903.69;10526770;28;20103;-77